A- A+ FrançaisEnglishEspañol中国

Services sur Internet Soldes sur Internet Des idées de cadeaux Météo Météo aéro

La météo à : Autours de vous Tarbes-Lourdes-PyrénéesLe-Puy-LoudesPau-PyrénéesRennes-St-Jacques

La météo aéronautique pour les pilotes, la préparation du vol avec les METAR (METeorological Aerodrome Report, message d'observation des conditions météorologiques pour l'aviation) et Les TAF (Terminal Aerodrome Forecast : message de prévision à court terme des conditions météorologiques pour l'aviation). Et les autres ressources comme les VAC (Visual Approch Chart) et les NOTAM (Notice To Airman) pour préprer les vols.

Aéroport Tebessa (Algérie) / OACI DABS/ IATA TEE

L'altitude de l'aéroport Tebessa est de 811 m = 2661 ft. Il est situé à proximité de Tébessi (Algérie). La météo générale à 5 jours est disponible pour Hammamet situé à 15.4 km.

METAR de l'aéroport Tebessa - DABS

DABS 082100Z 25004KT 9999 SCT033 10/07 Q1019

Décodage du METAR de l'aéroport Tebessa (DZ)

METAR émis par DABS le dimanche 8 décembre 2019 à 21:00 heure TU, il y a 18 minutes.

La visibilité est de supérieure à 10 km = supérieure à 6.2 sm.

La température est de 10°C = 50 °F et le point rosée est de 7°C = 45 °F . Ce qui correspond à 82% d'humidité relative.

Le QNH est de 1019 hPa = 30.09 inHg

Vent de 4 kt = 7 km/h, orienté à 250°.

Nuages : Nuages épars à 3300 ft = 1010 mètres.

TAF de l'aéroport Tebessa - DABS

DABS 081700Z 0818/0918 04014KT 9999 SCT033 TEMPO 0818/0906 FEW020TCU PROB30 TEMPO 0818/0824 5000 -TSRA FEW023CB BKN030

DABS 081700Z 0818/0918 04014KT 9999 nuages épars à 033 temporairement 0818/0906 quelques nuages à 020TCU probabilité de 30% d'avoir temporairement 0818/0824 5000 faible TSRA quelques nuages à 023CB couverture nuageuse fragmentée à 030

Aéroport à proximité de Tebessa

Météo générale à 5 jours à Hammamet (15.4 km)Aéroport Gafsa (129 km)Aéroport Annaba Mellah (157 km)Aéroport Constantine Ain El Bey (165 km)Aéroport Tozeur Nefta (166 km)Aéroport Batna (168 km)Aéroport Telergma (175 km)

Vue aérienne de l'aéroport Tebessa

NOTAM de l'aéroport Tebessa

Les NOTAM sont fournis sans aucune garantie de leur actualité. Le pilote est le seul responsable de la vérification de sa validité avant de l'utiliser opérationnellement pour préparer un vol ou l'utiliser lors de sa navigation.

Pas de NOTAM

Sources des données